sensor_id;sensor_type;location;lat;lon;timestamp;P1;durP1;ratioP1;P2;durP2;ratioP2
40367;SDS011;26075;43.320;21.920;2024-02-26T00:00:49;15.80;;;11.75;;
40367;SDS011;26075;43.320;21.920;2024-02-26T00:05:51;21.95;;;12.02;;
40367;SDS011;26075;43.320;21.920;2024-02-26T00:10:52;21.27;;;13.70;;
40367;SDS011;26075;43.320;21.920;2024-02-26T00:15:53;26.17;;;16.45;;
40367;SDS011;26075;43.320;21.920;2024-02-26T00:20:54;23.08;;;14.32;;
40367;SDS011;26075;43.320;21.920;2024-02-26T00:25:55;22.58;;;14.48;;
40367;SDS011;26075;43.320;21.920;2024-02-26T00:30:56;22.85;;;14.63;;
40367;SDS011;26075;43.320;21.920;2024-02-26T00:35:57;21.73;;;13.63;;
40367;SDS011;26075;43.320;21.920;2024-02-26T00:40:58;21.63;;;12.57;;
40367;SDS011;26075;43.320;21.920;2024-02-26T00:45:59;19.45;;;12.48;;
40367;SDS011;26075;43.320;21.920;2024-02-26T00:51:00;17.40;;;11.63;;
40367;SDS011;26075;43.320;21.920;2024-02-26T00:56:02;18.00;;;10.70;;
40367;SDS011;26075;43.320;21.920;2024-02-26T01:01:03;16.48;;;10.05;;
40367;SDS011;26075;43.320;21.920;2024-02-26T01:06:04;20.70;;;12.20;;
40367;SDS011;26075;43.320;21.920;2024-02-26T01:11:05;16.98;;;10.57;;
40367;SDS011;26075;43.320;21.920;2024-02-26T01:16:07;20.70;;;9.57;;
40367;SDS011;26075;43.320;21.920;2024-02-26T01:21:08;30.77;;;17.50;;
40367;SDS011;26075;43.320;21.920;2024-02-26T01:26:09;35.33;;;23.10;;
40367;SDS011;26075;43.320;21.920;2024-02-26T01:31:10;38.25;;;21.92;;
40367;SDS011;26075;43.320;21.920;2024-02-26T01:36:11;32.33;;;19.25;;
40367;SDS011;26075;43.320;21.920;2024-02-26T01:41:15;24.92;;;16.77;;
40367;SDS011;26075;43.320;21.920;2024-02-26T01:46:17;33.33;;;17.65;;
40367;SDS011;26075;43.320;21.920;2024-02-26T01:51:18;25.60;;;16.45;;
40367;SDS011;26075;43.320;21.920;2024-02-26T01:56:19;26.17;;;14.15;;
40367;SDS011;26075;43.320;21.920;2024-02-26T02:01:20;22.63;;;13.77;;
40367;SDS011;26075;43.320;21.920;2024-02-26T02:06:23;25.13;;;13.77;;
40367;SDS011;26075;43.320;21.920;2024-02-26T02:11:24;23.48;;;12.63;;
40367;SDS011;26075;43.320;21.920;2024-02-26T02:16:25;19.17;;;11.48;;
40367;SDS011;26075;43.320;21.920;2024-02-26T02:21:26;18.63;;;11.60;;
40367;SDS011;26075;43.320;21.920;2024-02-26T02:26:27;17.25;;;11.77;;
40367;SDS011;26075;43.320;21.920;2024-02-26T02:31:28;15.88;;;11.15;;
40367;SDS011;26075;43.320;21.920;2024-02-26T02:36:29;16.92;;;10.27;;
40367;SDS011;26075;43.320;21.920;2024-02-26T02:41:30;16.70;;;9.85;;
40367;SDS011;26075;43.320;21.920;2024-02-26T02:46:31;13.77;;;7.88;;
40367;SDS011;26075;43.320;21.920;2024-02-26T02:51:33;14.93;;;7.60;;
40367;SDS011;26075;43.320;21.920;2024-02-26T02:56:34;13.85;;;7.72;;
40367;SDS011;26075;43.320;21.920;2024-02-26T03:01:35;10.65;;;7.00;;
40367;SDS011;26075;43.320;21.920;2024-02-26T03:06:37;11.65;;;6.32;;
40367;SDS011;26075;43.320;21.920;2024-02-26T03:11:38;14.48;;;6.20;;
40367;SDS011;26075;43.320;21.920;2024-02-26T03:16:39;11.55;;;6.00;;
40367;SDS011;26075;43.320;21.920;2024-02-26T03:21:41;8.48;;;6.05;;
40367;SDS011;26075;43.320;21.920;2024-02-26T03:26:42;10.77;;;6.63;;
40367;SDS011;26075;43.320;21.920;2024-02-26T03:31:43;10.95;;;7.15;;
40367;SDS011;26075;43.320;21.920;2024-02-26T03:36:45;10.20;;;5.45;;
40367;SDS011;26075;43.320;21.920;2024-02-26T03:41:46;11.07;;;5.45;;
40367;SDS011;26075;43.320;21.920;2024-02-26T03:46:47;9.55;;;6.15;;
40367;SDS011;26075;43.320;21.920;2024-02-26T03:51:48;13.05;;;6.00;;
40367;SDS011;26075;43.320;21.920;2024-02-26T03:56:49;9.98;;;5.70;;
40367;SDS011;26075;43.320;21.920;2024-02-26T04:01:50;11.95;;;6.00;;
40367;SDS011;26075;43.320;21.920;2024-02-26T04:06:52;11.05;;;5.63;;
40367;SDS011;26075;43.320;21.920;2024-02-26T04:11:53;12.98;;;6.07;;
40367;SDS011;26075;43.320;21.920;2024-02-26T04:16:54;10.27;;;5.75;;
40367;SDS011;26075;43.320;21.920;2024-02-26T04:21:55;7.80;;;5.30;;
40367;SDS011;26075;43.320;21.920;2024-02-26T04:26:56;12.82;;;5.70;;
40367;SDS011;26075;43.320;21.920;2024-02-26T04:31:57;11.02;;;5.53;;
40367;SDS011;26075;43.320;21.920;2024-02-26T04:36:58;9.32;;;5.55;;
40367;SDS011;26075;43.320;21.920;2024-02-26T04:41:59;8.55;;;5.65;;
40367;SDS011;26075;43.320;21.920;2024-02-26T04:47:03;12.88;;;6.32;;
40367;SDS011;26075;43.320;21.920;2024-02-26T04:52:04;10.57;;;6.80;;
40367;SDS011;26075;43.320;21.920;2024-02-26T04:57:06;10.25;;;5.90;;
40367;SDS011;26075;43.320;21.920;2024-02-26T05:02:07;12.40;;;6.63;;
40367;SDS011;26075;43.320;21.920;2024-02-26T05:07:08;16.38;;;6.93;;
40367;SDS011;26075;43.320;21.920;2024-02-26T05:12:09;14.35;;;6.70;;
40367;SDS011;26075;43.320;21.920;2024-02-26T05:17:10;13.05;;;7.07;;
40367;SDS011;26075;43.320;21.920;2024-02-26T05:22:11;12.90;;;7.18;;
40367;SDS011;26075;43.320;21.920;2024-02-26T05:27:12;10.02;;;6.40;;
40367;SDS011;26075;43.320;21.920;2024-02-26T05:32:13;14.55;;;7.20;;
40367;SDS011;26075;43.320;21.920;2024-02-26T05:37:15;11.30;;;6.75;;
40367;SDS011;26075;43.320;21.920;2024-02-26T05:42:16;18.08;;;9.93;;
40367;SDS011;26075;43.320;21.920;2024-02-26T05:47:17;19.15;;;10.05;;
40367;SDS011;26075;43.320;21.920;2024-02-26T05:52:18;18.10;;;9.40;;
40367;SDS011;26075;43.320;21.920;2024-02-26T05:57:19;19.63;;;10.18;;
40367;SDS011;26075;43.320;21.920;2024-02-26T06:02:20;12.82;;;7.88;;
40367;SDS011;26075;43.320;21.920;2024-02-26T06:07:21;14.50;;;7.60;;
40367;SDS011;26075;43.320;21.920;2024-02-26T06:12:22;9.85;;;6.18;;
40367;SDS011;26075;43.320;21.920;2024-02-26T06:17:24;10.82;;;6.88;;
40367;SDS011;26075;43.320;21.920;2024-02-26T06:22:25;12.20;;;7.25;;
40367;SDS011;26075;43.320;21.920;2024-02-26T06:27:26;11.75;;;7.53;;
40367;SDS011;26075;43.320;21.920;2024-02-26T06:32:27;13.35;;;6.88;;
40367;SDS011;26075;43.320;21.920;2024-02-26T06:37:29;11.27;;;6.70;;
40367;SDS011;26075;43.320;21.920;2024-02-26T06:42:30;12.30;;;6.20;;
40367;SDS011;26075;43.320;21.920;2024-02-26T06:47:31;12.40;;;6.65;;
40367;SDS011;26075;43.320;21.920;2024-02-26T06:52:34;12.77;;;7.00;;
40367;SDS011;26075;43.320;21.920;2024-02-26T06:57:35;12.48;;;6.78;;
40367;SDS011;26075;43.320;21.920;2024-02-26T07:02:36;10.63;;;6.13;;
40367;SDS011;26075;43.320;21.920;2024-02-26T07:07:37;11.02;;;6.85;;
40367;SDS011;26075;43.320;21.920;2024-02-26T07:12:38;14.07;;;6.78;;
40367;SDS011;26075;43.320;21.920;2024-02-26T07:17:40;13.27;;;7.13;;
40367;SDS011;26075;43.320;21.920;2024-02-26T07:22:47;11.30;;;6.05;;
40367;SDS011;26075;43.320;21.920;2024-02-26T07:27:48;13.70;;;6.53;;
40367;SDS011;26075;43.320;21.920;2024-02-26T07:32:50;11.18;;;6.28;;
40367;SDS011;26075;43.320;21.920;2024-02-26T07:37:51;11.73;;;6.75;;
40367;SDS011;26075;43.320;21.920;2024-02-26T07:42:52;16.45;;;7.43;;
40367;SDS011;26075;43.320;21.920;2024-02-26T07:47:53;12.23;;;6.68;;
40367;SDS011;26075;43.320;21.920;2024-02-26T07:52:54;11.05;;;7.03;;
40367;SDS011;26075;43.320;21.920;2024-02-26T07:57:55;11.65;;;6.80;;
40367;SDS011;26075;43.320;21.920;2024-02-26T08:02:56;15.45;;;7.15;;
40367;SDS011;26075;43.320;21.920;2024-02-26T08:07:57;12.82;;;7.47;;
40367;SDS011;26075;43.320;21.920;2024-02-26T08:12:58;16.08;;;7.32;;
40367;SDS011;26075;43.320;21.920;2024-02-26T08:18:05;11.63;;;7.18;;
40367;SDS011;26075;43.320;21.920;2024-02-26T08:23:06;7.55;;;4.63;;
40367;SDS011;26075;43.320;21.920;2024-02-26T08:28:07;10.23;;;4.90;;
40367;SDS011;26075;43.320;21.920;2024-02-26T08:33:08;9.82;;;4.80;;
40367;SDS011;26075;43.320;21.920;2024-02-26T08:38:10;18.25;;;7.70;;
40367;SDS011;26075;43.320;21.920;2024-02-26T08:43:11;15.30;;;7.10;;
40367;SDS011;26075;43.320;21.920;2024-02-26T08:48:12;12.02;;;7.75;;
40367;SDS011;26075;43.320;21.920;2024-02-26T08:53:13;10.45;;;4.72;;
40367;SDS011;26075;43.320;21.920;2024-02-26T08:58:14;7.50;;;4.65;;
40367;SDS011;26075;43.320;21.920;2024-02-26T09:03:15;11.25;;;5.88;;
40367;SDS011;26075;43.320;21.920;2024-02-26T09:08:16;9.15;;;5.25;;
40367;SDS011;26075;43.320;21.920;2024-02-26T09:13:17;8.40;;;5.28;;
40367;SDS011;26075;43.320;21.920;2024-02-26T09:18:18;9.07;;;4.88;;
40367;SDS011;26075;43.320;21.920;2024-02-26T09:23:19;9.10;;;4.95;;
40367;SDS011;26075;43.320;21.920;2024-02-26T09:28:21;9.02;;;4.97;;
40367;SDS011;26075;43.320;21.920;2024-02-26T09:33:22;9.57;;;4.93;;
40367;SDS011;26075;43.320;21.920;2024-02-26T09:38:23;10.02;;;5.28;;
40367;SDS011;26075;43.320;21.920;2024-02-26T09:43:24;8.32;;;5.00;;
40367;SDS011;26075;43.320;21.920;2024-02-26T09:48:29;8.70;;;4.85;;
40367;SDS011;26075;43.320;21.920;2024-02-26T09:53:31;9.85;;;4.90;;
40367;SDS011;26075;43.320;21.920;2024-02-26T09:58:32;10.30;;;4.50;;
40367;SDS011;26075;43.320;21.920;2024-02-26T10:03:38;10.63;;;4.40;;
40367;SDS011;26075;43.320;21.920;2024-02-26T10:08:40;7.70;;;4.45;;
40367;SDS011;26075;43.320;21.920;2024-02-26T10:13:42;7.10;;;4.57;;
40367;SDS011;26075;43.320;21.920;2024-02-26T10:18:49;12.13;;;4.70;;
40367;SDS011;26075;43.320;21.920;2024-02-26T10:23:51;6.70;;;3.72;;
40367;SDS011;26075;43.320;21.920;2024-02-26T10:28:52;7.03;;;3.80;;
40367;SDS011;26075;43.320;21.920;2024-02-26T10:33:55;7.53;;;4.38;;
40367;SDS011;26075;43.320;21.920;2024-02-26T10:38:56;7.70;;;4.00;;
40367;SDS011;26075;43.320;21.920;2024-02-26T10:43:58;7.53;;;4.45;;
40367;SDS011;26075;43.320;21.920;2024-02-26T10:48:59;8.13;;;4.57;;
40367;SDS011;26075;43.320;21.920;2024-02-26T10:54:00;8.63;;;4.90;;
40367;SDS011;26075;43.320;21.920;2024-02-26T10:59:04;8.48;;;4.25;;
40367;SDS011;26075;43.320;21.920;2024-02-26T11:04:08;8.18;;;3.92;;
40367;SDS011;26075;43.320;21.920;2024-02-26T11:09:10;8.10;;;4.20;;
40367;SDS011;26075;43.320;21.920;2024-02-26T11:14:16;8.32;;;3.72;;
40367;SDS011;26075;43.320;21.920;2024-02-26T11:19:17;8.55;;;3.90;;
40367;SDS011;26075;43.320;21.920;2024-02-26T11:24:19;7.35;;;4.13;;
40367;SDS011;26075;43.320;21.920;2024-02-26T11:29:21;7.63;;;3.88;;
40367;SDS011;26075;43.320;21.920;2024-02-26T11:34:22;7.00;;;4.03;;
40367;SDS011;26075;43.320;21.920;2024-02-26T11:39:24;6.28;;;3.58;;
40367;SDS011;26075;43.320;21.920;2024-02-26T11:44:28;8.15;;;4.18;;
40367;SDS011;26075;43.320;21.920;2024-02-26T11:49:32;6.43;;;3.97;;
40367;SDS011;26075;43.320;21.920;2024-02-26T11:54:47;9.48;;;3.97;;
40367;SDS011;26075;43.320;21.920;2024-02-26T11:59:49;6.65;;;3.33;;
40367;SDS011;26075;43.320;21.920;2024-02-26T12:04:51;5.25;;;3.33;;
40367;SDS011;26075;43.320;21.920;2024-02-26T12:09:52;7.40;;;2.97;;
40367;SDS011;26075;43.320;21.920;2024-02-26T12:14:53;7.47;;;3.78;;
40367;SDS011;26075;43.320;21.920;2024-02-26T12:20:07;9.35;;;3.83;;
40367;SDS011;26075;43.320;21.920;2024-02-26T12:25:09;6.45;;;3.20;;
40367;SDS011;26075;43.320;21.920;2024-02-26T12:30:11;7.25;;;3.83;;
40367;SDS011;26075;43.320;21.920;2024-02-26T12:35:12;11.52;;;3.47;;
40367;SDS011;26075;43.320;21.920;2024-02-26T12:40:13;9.27;;;3.47;;
40367;SDS011;26075;43.320;21.920;2024-02-26T12:45:15;7.13;;;3.35;;
40367;SDS011;26075;43.320;21.920;2024-02-26T12:50:16;9.27;;;3.30;;
40367;SDS011;26075;43.320;21.920;2024-02-26T12:55:18;8.27;;;3.08;;
40367;SDS011;26075;43.320;21.920;2024-02-26T13:00:25;7.50;;;3.47;;
40367;SDS011;26075;43.320;21.920;2024-02-26T13:05:27;9.45;;;3.63;;
40367;SDS011;26075;43.320;21.920;2024-02-26T13:10:28;9.85;;;4.03;;
40367;SDS011;26075;43.320;21.920;2024-02-26T13:15:29;9.15;;;3.92;;
40367;SDS011;26075;43.320;21.920;2024-02-26T13:20:30;9.02;;;3.50;;
40367;SDS011;26075;43.320;21.920;2024-02-26T13:25:32;8.93;;;4.40;;
40367;SDS011;26075;43.320;21.920;2024-02-26T13:30:33;11.60;;;5.15;;
40367;SDS011;26075;43.320;21.920;2024-02-26T13:35:34;8.77;;;4.68;;
40367;SDS011;26075;43.320;21.920;2024-02-26T13:40:36;11.57;;;5.20;;
40367;SDS011;26075;43.320;21.920;2024-02-26T13:45:37;10.90;;;3.45;;
40367;SDS011;26075;43.320;21.920;2024-02-26T13:50:39;7.40;;;3.50;;
40367;SDS011;26075;43.320;21.920;2024-02-26T13:55:41;9.18;;;4.20;;
40367;SDS011;26075;43.320;21.920;2024-02-26T14:00:45;9.68;;;4.43;;
40367;SDS011;26075;43.320;21.920;2024-02-26T14:05:47;7.50;;;4.10;;
40367;SDS011;26075;43.320;21.920;2024-02-26T14:10:49;7.60;;;4.38;;
40367;SDS011;26075;43.320;21.920;2024-02-26T14:15:50;9.57;;;3.63;;
40367;SDS011;26075;43.320;21.920;2024-02-26T14:20:51;7.20;;;4.10;;
40367;SDS011;26075;43.320;21.920;2024-02-26T14:25:52;8.68;;;4.10;;
40367;SDS011;26075;43.320;21.920;2024-02-26T14:30:53;8.30;;;4.28;;
40367;SDS011;26075;43.320;21.920;2024-02-26T14:35:54;9.73;;;4.18;;
40367;SDS011;26075;43.320;21.920;2024-02-26T14:40:55;9.10;;;4.40;;
40367;SDS011;26075;43.320;21.920;2024-02-26T14:45:57;6.20;;;3.30;;
40367;SDS011;26075;43.320;21.920;2024-02-26T14:51:00;8.13;;;5.20;;
40367;SDS011;26075;43.320;21.920;2024-02-26T14:56:01;10.55;;;6.30;;
40367;SDS011;26075;43.320;21.920;2024-02-26T15:01:02;13.10;;;7.50;;
40367;SDS011;26075;43.320;21.920;2024-02-26T15:06:03;13.90;;;7.20;;
40367;SDS011;26075;43.320;21.920;2024-02-26T15:11:04;14.82;;;7.20;;
40367;SDS011;26075;43.320;21.920;2024-02-26T15:16:06;10.38;;;6.55;;
40367;SDS011;26075;43.320;21.920;2024-02-26T15:21:07;9.50;;;5.40;;
40367;SDS011;26075;43.320;21.920;2024-02-26T15:26:08;11.15;;;5.72;;
40367;SDS011;26075;43.320;21.920;2024-02-26T15:31:09;10.85;;;5.78;;
40367;SDS011;26075;43.320;21.920;2024-02-26T15:36:10;10.98;;;5.40;;
40367;SDS011;26075;43.320;21.920;2024-02-26T15:41:12;10.68;;;6.65;;
40367;SDS011;26075;43.320;21.920;2024-02-26T15:46:13;10.55;;;6.15;;
40367;SDS011;26075;43.320;21.920;2024-02-26T15:51:21;13.60;;;6.68;;
40367;SDS011;26075;43.320;21.920;2024-02-26T15:56:26;15.20;;;7.97;;
40367;SDS011;26075;43.320;21.920;2024-02-26T16:01:27;19.23;;;10.32;;
40367;SDS011;26075;43.320;21.920;2024-02-26T16:06:29;19.77;;;9.38;;
40367;SDS011;26075;43.320;21.920;2024-02-26T16:11:32;14.68;;;8.20;;
40367;SDS011;26075;43.320;21.920;2024-02-26T16:16:33;14.13;;;6.28;;
40367;SDS011;26075;43.320;21.920;2024-02-26T16:21:35;10.15;;;6.38;;
40367;SDS011;26075;43.320;21.920;2024-02-26T16:26:36;15.45;;;6.57;;
40367;SDS011;26075;43.320;21.920;2024-02-26T16:31:38;13.38;;;6.70;;
40367;SDS011;26075;43.320;21.920;2024-02-26T16:36:40;12.25;;;6.28;;
40367;SDS011;26075;43.320;21.920;2024-02-26T16:41:41;14.32;;;7.10;;
40367;SDS011;26075;43.320;21.920;2024-02-26T16:46:43;14.02;;;9.40;;
40367;SDS011;26075;43.320;21.920;2024-02-26T16:51:45;11.07;;;7.97;;
40367;SDS011;26075;43.320;21.920;2024-02-26T16:56:46;15.02;;;9.43;;
40367;SDS011;26075;43.320;21.920;2024-02-26T17:01:47;10.93;;;6.63;;
40367;SDS011;26075;43.320;21.920;2024-02-26T17:06:48;15.02;;;6.38;;
40367;SDS011;26075;43.320;21.920;2024-02-26T17:11:49;14.13;;;7.13;;
40367;SDS011;26075;43.320;21.920;2024-02-26T17:16:53;8.40;;;5.43;;
40367;SDS011;26075;43.320;21.920;2024-02-26T17:21:54;10.70;;;5.93;;
40367;SDS011;26075;43.320;21.920;2024-02-26T17:26:55;12.88;;;7.20;;
40367;SDS011;26075;43.320;21.920;2024-02-26T17:31:56;18.52;;;9.75;;
40367;SDS011;26075;43.320;21.920;2024-02-26T17:36:57;19.17;;;11.95;;
40367;SDS011;26075;43.320;21.920;2024-02-26T17:41:59;19.25;;;10.40;;
40367;SDS011;26075;43.320;21.920;2024-02-26T17:47:00;19.17;;;10.38;;
40367;SDS011;26075;43.320;21.920;2024-02-26T17:52:01;17.13;;;11.00;;
40367;SDS011;26075;43.320;21.920;2024-02-26T17:57:03;25.95;;;12.80;;
40367;SDS011;26075;43.320;21.920;2024-02-26T18:02:05;22.65;;;13.65;;
40367;SDS011;26075;43.320;21.920;2024-02-26T18:07:07;19.48;;;11.52;;
40367;SDS011;26075;43.320;21.920;2024-02-26T18:12:08;24.48;;;12.68;;
40367;SDS011;26075;43.320;21.920;2024-02-26T18:17:09;18.85;;;13.38;;
40367;SDS011;26075;43.320;21.920;2024-02-26T18:22:10;19.83;;;12.23;;
40367;SDS011;26075;43.320;21.920;2024-02-26T18:27:12;22.70;;;13.38;;
40367;SDS011;26075;43.320;21.920;2024-02-26T18:32:13;20.75;;;12.68;;
40367;SDS011;26075;43.320;21.920;2024-02-26T18:37:15;23.05;;;13.45;;
40367;SDS011;26075;43.320;21.920;2024-02-26T18:42:17;24.27;;;14.57;;
40367;SDS011;26075;43.320;21.920;2024-02-26T18:47:19;23.88;;;13.80;;
40367;SDS011;26075;43.320;21.920;2024-02-26T18:52:22;28.45;;;16.30;;
40367;SDS011;26075;43.320;21.920;2024-02-26T18:57:24;8.73;;;5.15;;
40367;SDS011;26075;43.320;21.920;2024-02-26T19:02:25;12.48;;;7.38;;
40367;SDS011;26075;43.320;21.920;2024-02-26T19:07:28;30.60;;;18.05;;
40367;SDS011;26075;43.320;21.920;2024-02-26T19:12:29;37.50;;;22.40;;
40367;SDS011;26075;43.320;21.920;2024-02-26T19:17:30;35.50;;;20.23;;
40367;SDS011;26075;43.320;21.920;2024-02-26T19:22:31;35.78;;;21.50;;
40367;SDS011;26075;43.320;21.920;2024-02-26T19:27:32;29.25;;;19.50;;
40367;SDS011;26075;43.320;21.920;2024-02-26T19:32:33;31.10;;;19.70;;
40367;SDS011;26075;43.320;21.920;2024-02-26T19:37:35;28.67;;;20.30;;
40367;SDS011;26075;43.320;21.920;2024-02-26T19:42:36;31.67;;;21.08;;
40367;SDS011;26075;43.320;21.920;2024-02-26T19:47:37;30.70;;;19.30;;
40367;SDS011;26075;43.320;21.920;2024-02-26T19:52:39;25.75;;;16.83;;
40367;SDS011;26075;43.320;21.920;2024-02-26T19:57:41;25.95;;;18.35;;
40367;SDS011;26075;43.320;21.920;2024-02-26T20:02:42;32.42;;;20.63;;
40367;SDS011;26075;43.320;21.920;2024-02-26T20:07:44;32.47;;;20.65;;
40367;SDS011;26075;43.320;21.920;2024-02-26T20:12:45;29.80;;;20.15;;
40367;SDS011;26075;43.320;21.920;2024-02-26T20:17:46;37.08;;;22.52;;
40367;SDS011;26075;43.320;21.920;2024-02-26T20:22:47;33.92;;;22.55;;
40367;SDS011;26075;43.320;21.920;2024-02-26T20:27:49;34.45;;;23.63;;
40367;SDS011;26075;43.320;21.920;2024-02-26T20:32:50;28.70;;;21.55;;
40367;SDS011;26075;43.320;21.920;2024-02-26T20:37:52;33.15;;;19.75;;
40367;SDS011;26075;43.320;21.920;2024-02-26T20:42:53;28.75;;;18.42;;
40367;SDS011;26075;43.320;21.920;2024-02-26T20:47:54;32.80;;;20.30;;
40367;SDS011;26075;43.320;21.920;2024-02-26T20:52:55;39.42;;;23.13;;
40367;SDS011;26075;43.320;21.920;2024-02-26T20:57:56;35.83;;;23.15;;
40367;SDS011;26075;43.320;21.920;2024-02-26T21:02:58;39.70;;;22.98;;
40367;SDS011;26075;43.320;21.920;2024-02-26T21:08:02;40.85;;;26.98;;
40367;SDS011;26075;43.320;21.920;2024-02-26T21:13:04;31.95;;;21.40;;
40367;SDS011;26075;43.320;21.920;2024-02-26T21:18:05;31.67;;;20.35;;
40367;SDS011;26075;43.320;21.920;2024-02-26T21:23:06;18.08;;;11.00;;
40367;SDS011;26075;43.320;21.920;2024-02-26T21:28:08;21.90;;;14.15;;
40367;SDS011;26075;43.320;21.920;2024-02-26T21:33:10;22.80;;;13.85;;
40367;SDS011;26075;43.320;21.920;2024-02-26T21:38:11;23.13;;;12.73;;
40367;SDS011;26075;43.320;21.920;2024-02-26T21:43:12;20.60;;;12.13;;
40367;SDS011;26075;43.320;21.920;2024-02-26T21:48:14;26.98;;;13.70;;
40367;SDS011;26075;43.320;21.920;2024-02-26T21:53:15;23.20;;;12.98;;
40367;SDS011;26075;43.320;21.920;2024-02-26T21:58:17;18.38;;;13.32;;
40367;SDS011;26075;43.320;21.920;2024-02-26T22:03:19;21.48;;;12.95;;
40367;SDS011;26075;43.320;21.920;2024-02-26T22:08:20;22.17;;;14.23;;
40367;SDS011;26075;43.320;21.920;2024-02-26T22:13:21;18.70;;;11.82;;
40367;SDS011;26075;43.320;21.920;2024-02-26T22:18:22;22.83;;;14.50;;
40367;SDS011;26075;43.320;21.920;2024-02-26T22:23:23;21.80;;;13.48;;
40367;SDS011;26075;43.320;21.920;2024-02-26T22:28:24;20.55;;;13.65;;
40367;SDS011;26075;43.320;21.920;2024-02-26T22:33:25;20.38;;;12.50;;
40367;SDS011;26075;43.320;21.920;2024-02-26T22:38:26;24.05;;;12.80;;
40367;SDS011;26075;43.320;21.920;2024-02-26T22:43:27;14.10;;;8.73;;
40367;SDS011;26075;43.320;21.920;2024-02-26T22:48:28;13.63;;;8.52;;
40367;SDS011;26075;43.320;21.920;2024-02-26T22:53:29;15.63;;;8.73;;
40367;SDS011;26075;43.320;21.920;2024-02-26T22:58:30;16.40;;;10.88;;
40367;SDS011;26075;43.320;21.920;2024-02-26T23:03:31;23.50;;;9.98;;
40367;SDS011;26075;43.320;21.920;2024-02-26T23:08:33;15.30;;;10.05;;
40367;SDS011;26075;43.320;21.920;2024-02-26T23:13:34;20.75;;;13.23;;
40367;SDS011;26075;43.320;21.920;2024-02-26T23:18:35;23.60;;;12.80;;
40367;SDS011;26075;43.320;21.920;2024-02-26T23:23:37;19.20;;;11.68;;
40367;SDS011;26075;43.320;21.920;2024-02-26T23:28:38;18.50;;;11.93;;
40367;SDS011;26075;43.320;21.920;2024-02-26T23:33:39;15.32;;;10.02;;
40367;SDS011;26075;43.320;21.920;2024-02-26T23:38:40;19.13;;;10.75;;
40367;SDS011;26075;43.320;21.920;2024-02-26T23:43:41;17.65;;;10.93;;
40367;SDS011;26075;43.320;21.920;2024-02-26T23:48:42;17.60;;;11.55;;
40367;SDS011;26075;43.320;21.920;2024-02-26T23:53:44;18.33;;;10.73;;
40367;SDS011;26075;43.320;21.920;2024-02-26T23:58:45;18.17;;;11.02;;
